createdAt,value
2018-04-11T00:01:02.876Z,9.2
2018-04-11T00:02:11.705Z,9.18
2018-04-11T00:03:20.539Z,9.26
2018-04-11T00:04:29.372Z,9.2
2018-04-11T00:05:38.205Z,9.08
2018-04-11T00:06:47.149Z,9.05
2018-04-11T00:07:56.254Z,9.04
2018-04-11T00:09:05.082Z,9.23
2018-04-11T00:10:13.913Z,9.13
2018-04-11T00:11:22.748Z,9.24
2018-04-11T00:12:31.580Z,9.2
2018-04-11T00:13:40.412Z,9.11
2018-04-11T00:14:49.519Z,9.11
2018-04-11T00:15:58.633Z,9.05
2018-04-11T00:17:07.741Z,9.08
2018-04-11T00:18:16.575Z,9.04
2018-04-11T00:19:25.408Z,9.02
2018-04-11T00:20:34.516Z,8.95
2018-04-11T00:21:43.350Z,9.11
2018-04-11T00:22:52.454Z,9.11
2018-04-11T00:24:01.344Z,9.08
2018-04-11T00:25:10.176Z,8.99
2018-04-11T00:26:19.011Z,9.02
2018-04-11T00:27:27.840Z,8.92
2018-04-11T00:28:36.949Z,8.95
2018-04-11T00:29:45.886Z,8.84
2018-04-11T00:30:54.715Z,8.81
2018-04-11T00:32:03.832Z,8.77
2018-04-11T00:33:13.214Z,8.86
2018-04-11T00:34:22.048Z,8.74
2018-04-11T00:35:30.931Z,8.86
2018-04-11T00:36:40.036Z,8.87
2018-04-11T00:37:48.867Z,8.77
2018-04-11T00:38:57.697Z,8.98
2018-04-11T00:40:06.541Z,8.91
2018-04-11T00:41:15.356Z,8.81
2018-04-11T00:42:24.187Z,8.84
2018-04-11T00:43:33.019Z,8.81
2018-04-11T00:44:42.125Z,8.79
2018-04-11T00:45:50.956Z,8.89
2018-04-11T00:46:59.936Z,8.84
2018-04-11T00:48:08.769Z,8.8
2018-04-11T00:49:18.152Z,8.71
2018-04-11T00:50:26.980Z,8.79
2018-04-11T00:51:35.810Z,8.73
2018-04-11T00:52:44.698Z,8.65
2018-04-11T00:53:53.801Z,8.73
2018-04-11T00:55:02.908Z,8.74
2018-04-11T00:56:11.738Z,8.76
2018-04-11T00:57:20.568Z,8.79
2018-04-11T00:58:29.827Z,8.74
2018-04-11T00:59:38.659Z,8.7
2018-04-11T01:00:47.492Z,8.95
2018-04-11T01:01:56.598Z,8.89
2018-04-11T01:03:05.430Z,8.73
2018-04-11T01:04:14.545Z,8.68
2018-04-11T01:05:23.374Z,8.7
2018-04-11T01:06:32.206Z,8.59
2018-04-11T01:07:41.038Z,8.65
2018-04-11T01:08:49.869Z,8.58
2018-04-11T01:09:58.849Z,8.56
2018-04-11T01:11:07.958Z,8.66
2018-04-11T01:12:16.791Z,8.62
2018-04-11T01:13:26.172Z,8.59
2018-04-11T01:14:35.277Z,8.56
2018-04-11T01:15:44.112Z,8.66
2018-04-11T01:16:52.944Z,8.59
2018-04-11T01:18:01.782Z,8.58
2018-04-11T01:19:10.613Z,8.56
2018-04-11T01:20:19.447Z,8.56
2018-04-11T01:21:28.380Z,8.59
2018-04-11T01:22:37.490Z,8.53
2018-04-11T01:23:46.592Z,8.61
2018-04-11T01:24:55.422Z,8.62
2018-04-11T01:26:04.533Z,8.58
2018-04-11T01:27:13.368Z,8.56
2018-04-11T01:28:22.208Z,8.43
2018-04-11T01:29:31.318Z,8.55
2018-04-11T01:30:40.163Z,8.47
2018-04-11T01:31:49.275Z,8.55
2018-04-11T01:32:58.106Z,8.53
2018-04-11T01:34:07.486Z,8.5
2018-04-11T01:35:16.322Z,8.55
2018-04-11T01:36:25.427Z,8.47
2018-04-11T01:37:34.256Z,8.38
2018-04-11T01:38:43.137Z,8.47
2018-04-11T01:39:51.969Z,8.29
2018-04-11T01:41:00.802Z,8.4
2018-04-11T01:42:09.910Z,8.37
2018-04-11T01:43:18.744Z,8.44
2018-04-11T01:44:27.903Z,8.41
2018-04-11T01:45:36.734Z,8.43
2018-04-11T01:46:45.572Z,8.37
2018-04-11T01:47:54.678Z,8.34
2018-04-11T01:49:03.783Z,8.3
2018-04-11T01:50:12.992Z,8.36
2018-04-11T01:51:21.822Z,8.34
2018-04-11T01:52:30.930Z,8.44
2018-04-11T01:53:39.781Z,8.33
2018-04-11T01:54:48.613Z,8.41
2018-04-11T01:55:58.021Z,8.33
2018-04-11T01:57:06.853Z,8.47
2018-04-11T01:58:15.682Z,8.36
2018-04-11T01:59:24.514Z,8.38
2018-04-11T02:00:33.342Z,8.34
2018-04-11T02:01:42.652Z,8.36
2018-04-11T02:02:51.484Z,8.28
2018-04-11T02:04:00.317Z,8.29
2018-04-11T02:05:09.154Z,8.29
2018-04-11T02:06:17.985Z,8.47
2018-04-11T02:07:26.916Z,8.45
2018-04-11T02:08:36.027Z,8.38
2018-04-11T02:09:45.492Z,8.33
2018-04-11T02:10:54.321Z,8.37
2018-04-11T02:12:03.153Z,8.3
2018-04-11T02:13:12.135Z,8.33
2018-04-11T02:14:20.962Z,8.28
2018-04-11T02:15:29.791Z,8.25
2018-04-11T02:16:38.620Z,8.26
2018-04-11T02:17:47.453Z,8.36
2018-04-11T02:18:56.332Z,8.41
2018-04-11T02:20:05.163Z,8.34
2018-04-11T02:21:13.993Z,8.44
2018-04-11T02:22:23.106Z,8.38
2018-04-11T02:23:31.933Z,8.23
2018-04-11T02:24:40.762Z,8.18
2018-04-11T02:25:49.871Z,8.29
2018-04-11T02:26:58.979Z,8.22
2018-04-11T02:28:07.811Z,8.12
2018-04-11T02:29:16.644Z,8.11
2018-04-11T02:30:26.056Z,8.12
2018-04-11T02:31:34.890Z,8.12
2018-04-11T02:32:44.008Z,8.12
2018-04-11T02:33:53.405Z,8.18
2018-04-11T02:35:02.239Z,8.12
2018-04-11T02:36:11.448Z,8.16
2018-04-11T02:37:20.834Z,8.12
2018-04-11T02:38:29.662Z,8.07
2018-04-11T02:39:38.771Z,8.12
2018-04-11T02:40:47.882Z,8.07
2018-04-11T02:41:57.296Z,8.04
2018-04-11T02:43:06.131Z,8.11
2018-04-11T02:44:14.967Z,8.04
2018-04-11T02:45:24.363Z,8.15
2018-04-11T02:46:33.189Z,8.12
2018-04-11T02:47:42.023Z,8.12
2018-04-11T02:48:50.858Z,8.07
2018-04-11T02:50:00.237Z,8.1
2018-04-11T02:51:09.350Z,7.98
2018-04-11T02:52:18.180Z,8.1
2018-04-11T02:53:27.211Z,8.05
2018-04-11T02:54:36.044Z,8.08
2018-04-11T02:55:45.150Z,8.18
2018-04-11T02:56:53.984Z,8.11
2018-04-11T02:58:03.090Z,8.07
2018-04-11T02:59:12.247Z,8.1
2018-04-11T03:00:21.358Z,8.1
2018-04-11T03:01:30.742Z,8.1
2018-04-11T03:02:40.413Z,8.07
2018-04-11T03:03:49.244Z,8.12
2018-04-11T03:04:58.504Z,7.98
2018-04-11T03:06:07.332Z,7.93
2018-04-11T03:07:16.482Z,8.19
2018-04-11T03:08:25.313Z,8.11
2018-04-11T03:09:34.147Z,8.11
2018-04-11T03:10:43.035Z,8.18
2018-04-11T03:11:51.864Z,8.05
2018-04-11T03:13:00.694Z,7.92
2018-04-11T03:14:09.527Z,8.01
2018-04-11T03:15:18.358Z,8.05
2018-04-11T03:16:27.288Z,8.05
2018-04-11T03:17:36.399Z,7.98
2018-04-11T03:18:45.225Z,8.15
2018-04-11T03:19:54.606Z,8.12
2018-04-11T03:21:03.716Z,8.08
2018-04-11T03:22:12.645Z,8.07
2018-04-11T03:23:21.473Z,8.05
2018-04-11T03:24:30.304Z,7.98
2018-04-11T03:25:39.425Z,8.11
2018-04-11T03:26:48.257Z,8.08
2018-04-11T03:27:57.142Z,8.01
2018-04-11T03:29:05.976Z,7.98
2018-04-11T03:30:15.082Z,7.97
2018-04-11T03:31:24.195Z,7.97
2018-04-11T03:32:33.590Z,7.87
2018-04-11T03:33:42.769Z,7.98
2018-04-11T03:34:51.601Z,7.92
2018-04-11T03:36:00.714Z,7.97
2018-04-11T03:37:09.824Z,7.93
2018-04-11T03:38:18.654Z,8.01
2018-04-11T03:39:27.922Z,7.92
2018-04-11T03:40:37.303Z,7.98
2018-04-11T03:41:46.414Z,8.01
2018-04-11T03:42:55.517Z,8.02
2018-04-11T03:44:04.347Z,7.89
2018-04-11T03:45:13.178Z,7.86
2018-04-11T03:46:22.011Z,7.79
2018-04-11T03:47:30.842Z,7.87
2018-04-11T03:48:39.675Z,7.92
2018-04-11T03:49:48.506Z,7.86
2018-04-11T03:50:57.394Z,7.89
2018-04-11T03:52:06.503Z,7.95
2018-04-11T03:53:15.334Z,7.87
2018-04-11T03:54:24.439Z,7.89
2018-04-11T03:55:33.552Z,7.89
2018-04-11T03:56:42.981Z,7.89
2018-04-11T03:57:51.813Z,7.9
2018-04-11T03:59:00.644Z,7.85
2018-04-11T04:00:09.475Z,7.87
2018-04-11T04:01:18.308Z,7.9
2018-04-11T04:02:27.463Z,7.92
2018-04-11T04:03:36.861Z,7.95
2018-04-11T04:04:46.240Z,7.97
2018-04-11T04:05:55.072Z,7.95
2018-04-11T04:07:04.186Z,7.92
2018-04-11T04:08:13.340Z,7.9
2018-04-11T04:09:22.168Z,7.89
2018-04-11T04:10:30.999Z,7.87
2018-04-11T04:11:39.832Z,7.95
2018-04-11T04:12:48.665Z,8.01
2018-04-11T04:13:58.138Z,7.9
2018-04-11T04:15:07.183Z,7.95
2018-04-11T04:16:16.292Z,8.11
2018-04-11T04:17:25.402Z,8.07
2018-04-11T04:18:34.235Z,8.11
2018-04-11T04:19:43.405Z,8.12
2018-04-11T04:20:52.513Z,8.05
2018-04-11T04:22:01.342Z,8.04
2018-04-11T04:23:10.173Z,8.12
2018-04-11T04:24:19.006Z,8.11
2018-04-11T04:25:28.215Z,8.08
2018-04-11T04:26:37.051Z,8.15
2018-04-11T04:27:46.154Z,8.16
2018-04-11T04:28:54.983Z,8.22
2018-04-11T04:30:03.814Z,8.26
2018-04-11T04:31:13.123Z,8.12
2018-04-11T04:32:22.235Z,8.19
2018-04-11T04:33:31.066Z,8.23
2018-04-11T04:34:39.904Z,8.28
2018-04-11T04:35:49.008Z,8.3
2018-04-11T04:36:58.537Z,8.4
2018-04-11T04:38:07.369Z,8.28
2018-04-11T04:39:16.201Z,8.28
2018-04-11T04:40:25.583Z,8.34
2018-04-11T04:41:34.685Z,8.26
2018-04-11T04:42:43.997Z,8.28
2018-04-11T04:43:52.839Z,8.29
2018-04-11T04:45:01.661Z,8.33
2018-04-11T04:46:10.501Z,8.37
2018-04-11T04:47:19.330Z,8.36
2018-04-11T04:48:28.312Z,8.33
2018-04-11T04:49:37.148Z,8.36
2018-04-11T04:50:45.975Z,8.26
2018-04-11T04:51:54.808Z,8.38
2018-04-11T04:53:03.639Z,8.36
2018-04-11T04:54:12.624Z,8.33
2018-04-11T04:55:21.455Z,8.34
2018-04-11T04:56:30.287Z,8.4
2018-04-11T04:57:39.120Z,8.41
2018-04-11T04:58:48.227Z,8.47
2018-04-11T04:59:57.059Z,8.37
2018-04-11T05:01:05.892Z,8.45
2018-04-11T05:02:14.726Z,8.44
2018-04-11T05:03:23.557Z,8.47
2018-04-11T05:04:32.666Z,8.43
2018-04-11T05:05:41.498Z,8.47
2018-04-11T05:06:50.330Z,8.55
2018-04-11T05:07:59.495Z,8.62
2018-04-11T05:09:08.331Z,8.62
2018-04-11T05:10:17.166Z,8.52
2018-04-11T05:11:26.290Z,8.62
2018-04-11T05:12:35.125Z,8.59
2018-04-11T05:13:43.961Z,8.53
2018-04-11T05:14:53.066Z,8.61
2018-04-11T05:16:01.900Z,8.55
2018-04-11T05:17:11.009Z,8.58
2018-04-11T05:18:19.841Z,8.58
2018-04-11T05:19:28.671Z,8.62
2018-04-11T05:20:37.504Z,8.65
2018-04-11T05:21:46.614Z,8.68
2018-04-11T05:22:55.443Z,8.66
2018-04-11T05:24:04.273Z,8.66
2018-04-11T05:25:13.106Z,8.65
2018-04-11T05:26:21.937Z,8.58
2018-04-11T05:27:30.767Z,8.63
2018-04-11T05:28:39.600Z,8.7
2018-04-11T05:29:48.428Z,8.63
2018-04-11T05:30:57.712Z,8.76
2018-04-11T05:32:06.558Z,8.76
2018-04-11T05:33:15.394Z,8.81
2018-04-11T05:34:24.497Z,8.79
2018-04-11T05:35:33.599Z,8.84
2018-04-11T05:36:42.583Z,8.84
2018-04-11T05:37:51.416Z,8.89
2018-04-11T05:39:00.250Z,8.8
2018-04-11T05:40:09.083Z,8.92
2018-04-11T05:41:17.917Z,8.96
2018-04-11T05:42:27.025Z,8.95
2018-04-11T05:43:36.131Z,8.96
2018-04-11T05:44:44.962Z,8.98
2018-04-11T05:45:54.068Z,8.95
2018-04-11T05:47:02.899Z,8.96
2018-04-11T05:48:11.730Z,8.95
2018-04-11T05:49:20.564Z,9.04
2018-04-11T05:50:29.688Z,9.08
2018-04-11T05:51:38.520Z,9.13
2018-04-11T05:52:47.353Z,9.17
2018-04-11T05:53:56.188Z,9.14
2018-04-11T05:55:05.079Z,9.04
2018-04-11T05:56:14.520Z,9.05
2018-04-11T05:57:23.354Z,9.15
2018-04-11T05:58:32.188Z,9.15
2018-04-11T05:59:41.022Z,9.13
2018-04-11T06:00:49.880Z,9.08
2018-04-11T06:01:59.046Z,9.14
2018-04-11T06:03:08.436Z,9.18
2018-04-11T06:04:17.270Z,9.29
2018-04-11T06:05:26.101Z,9.26
2018-04-11T06:06:34.939Z,9.35
2018-04-11T06:07:44.093Z,9.33
2018-04-11T06:08:53.200Z,9.36
2018-04-11T06:10:02.037Z,9.29
2018-04-11T06:11:11.182Z,9.33
2018-04-11T06:12:19.977Z,9.26
2018-04-11T06:13:28.858Z,9.33
2018-04-11T06:14:37.965Z,9.36
2018-04-11T06:15:47.346Z,9.42
2018-04-11T06:16:56.505Z,9.38
2018-04-11T06:18:05.585Z,9.51
2018-04-11T06:19:14.994Z,9.56
2018-04-11T06:20:23.826Z,9.48
2018-04-11T06:21:32.659Z,9.53
2018-04-11T06:22:41.495Z,9.64
2018-04-11T06:23:50.330Z,9.61
2018-04-11T06:24:59.342Z,9.66
2018-04-11T06:26:08.464Z,9.76
2018-04-11T06:27:17.289Z,9.72
2018-04-11T06:28:26.125Z,9.65
2018-04-11T06:29:35.514Z,9.66
2018-04-11T06:30:44.550Z,9.71
2018-04-11T06:31:53.660Z,9.78
2018-04-11T06:33:02.766Z,9.86
2018-04-11T06:34:11.600Z,9.81
2018-04-11T06:35:20.434Z,9.9
2018-04-11T06:36:29.672Z,9.79
2018-04-11T06:37:38.506Z,9.75
2018-04-11T06:38:47.611Z,9.72
2018-04-11T06:39:56.445Z,9.81
2018-04-11T06:41:05.553Z,9.79
2018-04-11T06:42:14.639Z,9.75
2018-04-11T06:43:23.471Z,9.74
2018-04-11T06:44:32.582Z,9.81
2018-04-11T06:45:41.414Z,9.72
2018-04-11T06:46:50.250Z,9.81
2018-04-11T06:47:59.409Z,9.79
2018-04-11T06:49:08.518Z,9.79
2018-04-11T06:50:17.352Z,9.91
2018-04-11T06:51:26.184Z,9.83
2018-04-11T06:52:35.019Z,9.86
2018-04-11T06:53:43.854Z,9.87
2018-04-11T06:54:52.963Z,9.89
2018-04-11T06:56:01.799Z,9.78
2018-04-11T06:57:10.909Z,9.78
2018-04-11T06:58:19.765Z,9.84
2018-04-11T06:59:29.593Z,9.91
2018-04-11T07:00:38.426Z,9.96
2018-04-11T07:01:47.260Z,10.04
2018-04-11T07:02:56.651Z,10.05
2018-04-11T07:04:05.759Z,10.05
2018-04-11T07:05:14.793Z,9.99
2018-04-11T07:06:23.631Z,9.97
2018-04-11T07:07:32.461Z,9.97
2018-04-11T07:08:41.292Z,9.86
2018-04-11T07:09:50.125Z,9.91
2018-04-11T07:10:58.959Z,9.91
2018-04-11T07:12:07.793Z,9.99
2018-04-11T07:13:16.628Z,10.01
2018-04-11T07:14:25.734Z,9.96
2018-04-11T07:15:34.566Z,9.89
2018-04-11T07:16:44.079Z,9.91
2018-04-11T07:17:52.917Z,10.07
2018-04-11T07:19:01.749Z,10.09
2018-04-11T07:20:11.134Z,10.22
2018-04-11T07:21:20.241Z,10.11
2018-04-11T07:22:29.122Z,10.07
2018-04-11T07:23:37.957Z,9.93
2018-04-11T07:24:47.072Z,10.08
2018-04-11T07:25:55.929Z,10.01
2018-04-11T07:27:05.315Z,10.08
2018-04-11T07:28:14.752Z,9.99
2018-04-11T07:29:23.587Z,10.15
2018-04-11T07:30:32.423Z,10.2
2018-04-11T07:31:41.257Z,10.11
2018-04-11T07:32:50.091Z,10.14
2018-04-11T07:33:59.247Z,10.17
2018-04-11T07:35:08.082Z,10.14
2018-04-11T07:36:16.922Z,10.02
2018-04-11T07:37:26.314Z,10.11
2018-04-11T07:38:35.148Z,10.09
2018-04-11T07:39:44.283Z,10.14
2018-04-11T07:40:53.675Z,10.08
2018-04-11T07:42:02.509Z,10.05
2018-04-11T07:43:11.350Z,9.97
2018-04-11T07:44:20.179Z,10.02
2018-04-11T07:45:29.390Z,10.17
2018-04-11T07:46:38.496Z,10.05
2018-04-11T07:47:47.329Z,10.26
2018-04-11T07:48:56.163Z,10.15
2018-04-11T07:50:04.999Z,10.18
2018-04-11T07:51:14.136Z,10.29
2018-04-11T07:52:22.970Z,10.4
2018-04-11T07:53:32.081Z,10.42
2018-04-11T07:54:40.929Z,10.33
2018-04-11T07:55:50.317Z,10.36
2018-04-11T07:56:59.351Z,10.48
2018-04-11T07:58:08.190Z,10.33
2018-04-11T07:59:17.301Z,10.47
2018-04-11T08:00:26.411Z,10.56
2018-04-11T08:01:35.526Z,10.4
2018-04-11T08:02:44.471Z,10.44
2018-04-11T08:03:53.576Z,10.53
2018-04-11T08:05:02.689Z,10.48
2018-04-11T08:06:11.530Z,10.55
2018-04-11T08:07:20.365Z,10.67
2018-04-11T08:08:29.204Z,10.7
2018-04-11T08:09:38.870Z,10.84
2018-04-11T08:10:48.261Z,10.79
2018-04-11T08:11:57.370Z,10.88
2018-04-11T08:13:06.484Z,10.91
2018-04-11T08:14:15.745Z,10.91
2018-04-11T08:15:24.585Z,10.81
2018-04-11T08:16:34.268Z,10.88
2018-04-11T08:17:43.100Z,10.94
2018-04-11T08:18:51.934Z,10.91
2018-04-11T08:20:01.141Z,10.94
2018-04-11T08:21:09.972Z,10.86
2018-04-11T08:22:19.359Z,10.92
2018-04-11T08:23:28.197Z,11.09
2018-04-11T08:24:37.034Z,11.14
2018-04-11T08:25:46.240Z,11.21
2018-04-11T08:26:55.079Z,11.28
2018-04-11T08:28:03.906Z,11.28
2018-04-11T08:29:12.741Z,11.32
2018-04-11T08:30:21.575Z,11.33
2018-04-11T08:31:31.113Z,11.37
2018-04-11T08:32:40.502Z,11.33
2018-04-11T08:33:49.615Z,11.39
2018-04-11T08:34:58.449Z,11.42
2018-04-11T08:36:07.844Z,11.33
2018-04-11T08:37:16.681Z,11.32
2018-04-11T08:38:25.516Z,11.27
2018-04-11T08:39:34.349Z,11.4
2018-04-11T08:40:43.186Z,11.33
2018-04-11T08:41:52.073Z,11.29
2018-04-11T08:43:00.959Z,11.25
2018-04-11T08:44:09.797Z,11.29
2018-04-11T08:45:18.993Z,11.39
2018-04-11T08:46:28.104Z,11.43
2018-04-11T08:47:36.941Z,11.46
2018-04-11T08:48:45.877Z,11.46
2018-04-11T08:49:54.989Z,11.51
2018-04-11T08:51:03.828Z,11.6
2018-04-11T08:52:12.661Z,11.57
2018-04-11T08:53:21.495Z,11.67
2018-04-11T08:54:30.430Z,11.55
2018-04-11T08:55:39.262Z,11.6
2018-04-11T08:56:48.097Z,11.67
2018-04-11T08:57:56.929Z,11.6
2018-04-11T08:59:05.767Z,11.65
2018-04-11T09:00:14.604Z,11.72
2018-04-11T09:01:23.437Z,11.75
2018-04-11T09:02:32.553Z,11.62
2018-04-11T09:03:41.664Z,11.57
2018-04-11T09:04:50.499Z,11.72
2018-04-11T09:05:59.487Z,11.73
2018-04-11T09:07:08.321Z,11.79
2018-04-11T09:08:17.153Z,11.94
2018-04-11T09:09:25.990Z,11.85
2018-04-11T09:10:35.098Z,11.99
2018-04-11T09:11:44.036Z,11.88
2018-04-11T09:12:52.866Z,11.99
2018-04-11T09:14:01.701Z,11.83
2018-04-11T09:15:10.539Z,11.73
2018-04-11T09:16:19.373Z,11.7
2018-04-11T09:17:28.311Z,11.73
2018-04-11T09:18:37.147Z,11.73
2018-04-11T09:19:45.987Z,11.78
2018-04-11T09:20:55.189Z,11.82
2018-04-11T09:22:04.031Z,11.79
2018-04-11T09:23:12.966Z,11.88
2018-04-11T09:24:22.077Z,11.8
2018-04-11T09:25:30.913Z,11.96
2018-04-11T09:26:39.750Z,11.94
2018-04-11T09:27:48.584Z,11.95
2018-04-11T09:28:57.526Z,12.05
2018-04-11T09:30:06.356Z,11.94
2018-04-11T09:31:15.201Z,12.01
2018-04-11T09:32:24.033Z,11.96
2018-04-11T09:33:33.140Z,12.1
2018-04-11T09:34:42.553Z,12.05
2018-04-11T09:35:51.389Z,12.2
2018-04-11T09:37:00.224Z,12.09
2018-04-11T09:38:09.067Z,12.23
2018-04-11T09:39:17.904Z,12.31
2018-04-11T09:40:27.141Z,12.24
2018-04-11T09:41:35.976Z,12.32
2018-04-11T09:42:45.089Z,12.31
2018-04-11T09:43:54.199Z,12.45
2018-04-11T09:45:03.310Z,12.41
2018-04-11T09:46:12.520Z,12.37
2018-04-11T09:47:21.353Z,12.42
2018-04-11T09:48:30.470Z,12.39
2018-04-11T09:49:39.305Z,12.46
2018-04-11T09:50:48.142Z,12.5
2018-04-11T09:51:57.286Z,12.53
2018-04-11T09:53:06.671Z,12.42
2018-04-11T09:54:15.786Z,12.42
2018-04-11T09:55:24.624Z,12.46
2018-04-11T09:56:33.738Z,12.47
2018-04-11T09:57:42.625Z,12.41
2018-04-11T09:58:51.732Z,12.35
2018-04-11T10:00:00.568Z,12.34
2018-04-11T10:01:09.411Z,12.41
2018-04-11T10:02:18.523Z,12.49
2018-04-11T10:03:27.558Z,12.42
2018-04-11T10:04:36.391Z,12.37
2018-04-11T10:05:45.228Z,12.38
2018-04-11T10:06:54.106Z,12.41
2018-04-11T10:08:03.584Z,12.47
2018-04-11T10:09:12.470Z,12.54
2018-04-11T10:10:21.307Z,12.57
2018-04-11T10:11:30.143Z,12.64
2018-04-11T10:12:39.535Z,12.7
2018-04-11T10:13:48.372Z,12.7
2018-04-11T10:14:57.457Z,12.7
2018-04-11T10:16:06.296Z,12.75
2018-04-11T10:17:15.140Z,12.77
2018-04-11T10:18:23.968Z,12.71
2018-04-11T10:19:33.075Z,12.71
2018-04-11T10:20:42.338Z,12.72
2018-04-11T10:21:51.173Z,12.71
2018-04-11T10:23:00.013Z,12.75
2018-04-11T10:24:09.224Z,12.92
2018-04-11T10:25:18.064Z,12.85
2018-04-11T10:26:27.301Z,12.92
2018-04-11T10:27:36.135Z,12.87
2018-04-11T10:28:45.523Z,12.96
2018-04-11T10:29:54.359Z,12.97
2018-04-11T10:31:03.205Z,13.04
2018-04-11T10:32:12.192Z,13.15
2018-04-11T10:33:21.031Z,13.17
2018-04-11T10:34:29.868Z,13.3
2018-04-11T10:35:38.705Z,13.39
2018-04-11T10:36:47.538Z,13.33
2018-04-11T10:37:56.528Z,13.33
2018-04-11T10:39:05.640Z,13.51
2018-04-11T10:40:14.752Z,13.48
2018-04-11T10:41:23.863Z,13.45
2018-04-11T10:42:32.700Z,13.44
2018-04-11T10:43:41.637Z,13.49
2018-04-11T10:44:50.474Z,13.51
2018-04-11T10:45:59.312Z,13.57
2018-04-11T10:47:08.149Z,13.63
2018-04-11T10:48:16.985Z,13.64
2018-04-11T10:49:25.923Z,13.64
2018-04-11T10:50:34.767Z,13.77
2018-04-11T10:51:44.151Z,13.75
2018-04-11T10:52:52.992Z,13.75
2018-04-11T10:54:02.106Z,13.75
2018-04-11T10:55:11.143Z,13.82
2018-04-11T10:56:19.980Z,13.75
2018-04-11T10:57:28.820Z,13.71
2018-04-11T10:58:37.663Z,13.71
2018-04-11T10:59:46.814Z,13.73
2018-04-11T11:00:55.704Z,13.77
2018-04-11T11:02:04.820Z,13.79
2018-04-11T11:03:13.675Z,13.89
2018-04-11T11:04:22.512Z,13.99
2018-04-11T11:05:31.350Z,14.03
2018-04-11T11:06:40.186Z,14.07
2018-04-11T11:07:49.239Z,14.15
2018-04-11T11:08:58.123Z,14.35
2018-04-11T11:10:06.969Z,14.28
2018-04-11T11:11:15.809Z,14.54
2018-04-11T11:12:24.852Z,14.55
2018-04-11T11:13:33.969Z,14.5
2018-04-11T11:14:42.806Z,14.68
2018-04-11T11:15:51.680Z,14.62
2018-04-11T11:17:00.556Z,14.7
2018-04-11T11:18:09.903Z,14.64
2018-04-11T11:19:18.772Z,14.75
2018-04-11T11:20:27.628Z,14.84
2018-04-11T11:21:36.496Z,14.91
2018-04-11T11:22:45.639Z,14.96
2018-04-11T11:23:54.503Z,15.1
2018-04-11T11:25:03.335Z,15.1
2018-04-11T11:26:12.483Z,15.2
2018-04-11T11:27:21.338Z,15.14
2018-04-11T11:28:30.215Z,15.11
2018-04-11T11:29:39.119Z,15.19
2018-04-11T11:30:48.238Z,15.31
2018-04-11T11:31:57.352Z,15.25
2018-04-11T11:33:06.237Z,15.25
2018-04-11T11:34:15.096Z,15.25
2018-04-11T11:35:24.086Z,15.38
2018-04-11T11:36:32.923Z,15.41
2018-04-11T11:37:41.759Z,15.51
2018-04-11T11:38:50.598Z,15.53
2018-04-11T11:39:59.463Z,15.56
2018-04-11T11:41:09.188Z,15.57
2018-04-11T11:42:18.048Z,15.59
2018-04-11T11:43:26.891Z,15.78
2018-04-11T11:44:35.805Z,15.78
2018-04-11T11:45:44.930Z,15.92
2018-04-11T11:46:54.162Z,16
2018-04-11T11:48:03.032Z,16.02
2018-04-11T11:49:11.874Z,16.04
2018-04-11T11:50:20.738Z,16.02
2018-04-11T11:51:29.575Z,16.01
2018-04-11T11:52:38.613Z,16.01
2018-04-11T11:53:47.732Z,16.01
2018-04-11T11:54:56.847Z,16.14
2018-04-11T11:56:06.021Z,16.21
2018-04-11T11:57:15.394Z,16.14
2018-04-11T11:58:24.864Z,16.14
2018-04-11T11:59:33.704Z,16.2
2018-04-11T12:00:42.827Z,16.3
2018-04-11T12:01:51.938Z,16.24
2018-04-11T12:03:01.052Z,16.34
2018-04-11T12:04:10.196Z,16.39
2018-04-11T12:05:19.314Z,16.53
2018-04-11T12:06:28.151Z,16.66
2018-04-11T12:07:36.991Z,16.67
2018-04-11T12:08:45.831Z,16.73
2018-04-11T12:09:54.776Z,16.83
2018-04-11T12:11:03.617Z,16.93
2018-04-11T12:12:12.739Z,17.01
2018-04-11T12:13:21.575Z,16.93
2018-04-11T12:14:30.416Z,17.04
2018-04-11T12:15:39.460Z,17.14
2018-04-11T12:16:48.568Z,17.14
2018-04-11T12:17:57.412Z,17.21
2018-04-11T12:19:06.256Z,17.26
2018-04-11T12:20:15.097Z,17.36
2018-04-11T12:21:24.089Z,17.37
2018-04-11T12:22:32.931Z,17.49
2018-04-11T12:23:41.777Z,17.58
2018-04-11T12:24:50.625Z,17.64
2018-04-11T12:25:59.467Z,17.74
2018-04-11T12:27:08.466Z,17.95
2018-04-11T12:28:17.582Z,17.9
2018-04-11T12:29:26.427Z,17.9
2018-04-11T12:30:35.862Z,18.02
2018-04-11T12:31:44.980Z,18
2018-04-11T12:32:53.824Z,18.11
2018-04-11T12:34:02.674Z,17.79
2018-04-11T12:35:11.520Z,17.72
2018-04-11T12:36:20.639Z,17.7
2018-04-11T12:37:29.836Z,17.56
2018-04-11T12:38:38.782Z,17.77
2018-04-11T12:39:47.625Z,17.89
2018-04-11T12:40:56.468Z,18.08
2018-04-11T12:42:05.860Z,18.08
2018-04-11T12:43:14.997Z,18.27
2018-04-11T12:44:24.104Z,18.41
2018-04-11T12:45:32.952Z,18.39
2018-04-11T12:46:42.088Z,18.57
2018-04-11T12:47:50.931Z,18.67
2018-04-11T12:48:59.777Z,18.62
2018-04-11T12:50:08.819Z,18.67
2018-04-11T12:51:17.665Z,18.54
2018-04-11T12:52:26.788Z,18.42
2018-04-11T12:53:35.631Z,18.36
2018-04-11T12:54:44.751Z,18.44
2018-04-11T12:55:53.867Z,18.58
2018-04-11T12:57:02.712Z,18.51
2018-04-11T12:58:11.553Z,18.73
2018-04-11T12:59:20.398Z,18.63
2018-04-11T13:00:29.515Z,18.8
2018-04-11T13:01:38.519Z,18.78
2018-04-11T13:02:47.349Z,18.81
2018-04-11T13:03:56.195Z,18.87
2018-04-11T13:05:05.040Z,18.99
2018-04-11T13:06:14.436Z,18.94
2018-04-11T13:07:23.428Z,18.98
2018-04-11T13:08:32.622Z,19.08
2018-04-11T13:09:41.704Z,19.19
2018-04-11T13:10:50.551Z,19.26
2018-04-11T13:11:59.399Z,19.19
2018-04-11T13:13:08.952Z,19.29
2018-04-11T13:14:17.787Z,19.22
2018-04-11T13:15:26.634Z,19.39
2018-04-11T13:16:35.760Z,19.54
2018-04-11T13:17:44.882Z,19.59
2018-04-11T13:18:53.790Z,19.56
2018-04-11T13:20:02.638Z,19.59
2018-04-11T13:21:11.484Z,19.68
2018-04-11T13:22:20.425Z,19.69
2018-04-11T13:23:29.271Z,19.68
2018-04-11T13:24:38.319Z,19.83
2018-04-11T13:25:47.836Z,20.01
2018-04-11T13:26:56.962Z,20.1
2018-04-11T13:28:06.089Z,20.11
2018-04-11T13:29:15.216Z,20.21
2018-04-11T13:30:24.463Z,20.31
2018-04-11T13:31:33.311Z,20.32
2018-04-11T13:32:42.155Z,20.39
2018-04-11T13:33:51.000Z,20.26
2018-04-11T13:34:59.849Z,20.21
2018-04-11T13:36:09.439Z,20.32
2018-04-11T13:37:18.284Z,20.48
2018-04-11T13:38:27.131Z,20.51
2018-04-11T13:39:36.252Z,20.59
2018-04-11T13:40:45.100Z,20.55
2018-04-11T13:41:54.199Z,20.5
2018-04-11T13:43:03.045Z,20.51
2018-04-11T13:44:11.888Z,20.67
2018-04-11T13:45:21.011Z,20.73
2018-04-11T13:46:30.408Z,20.72
2018-04-11T13:47:39.255Z,20.92
2018-04-11T13:48:48.105Z,20.91
2018-04-11T13:49:56.951Z,20.95
2018-04-11T13:51:06.356Z,21.06
2018-04-11T13:52:15.205Z,21.12
2018-04-11T13:53:24.482Z,21.16
2018-04-11T13:54:33.332Z,21.22
2018-04-11T13:55:42.739Z,21.32
2018-04-11T13:56:51.586Z,21.49
2018-04-11T13:58:00.709Z,21.44
2018-04-11T13:59:09.607Z,21.58
2018-04-11T14:00:18.455Z,21.44
2018-04-11T14:01:27.302Z,21.46
2018-04-11T14:02:36.425Z,21.77
2018-04-11T14:03:45.551Z,21.91
2018-04-11T14:04:54.403Z,22
2018-04-11T14:06:03.250Z,22.1
2018-04-11T14:07:12.098Z,22.3
2018-04-11T14:08:20.973Z,22.2
2018-04-11T14:09:30.459Z,22.22
2018-04-11T14:10:39.309Z,22.21
2018-04-11T14:11:48.161Z,22.25
2018-04-11T14:12:57.286Z,22.27
2018-04-11T14:14:06.136Z,22.36
2018-04-11T14:15:14.986Z,22.25
2018-04-11T14:16:23.837Z,22.31
2018-04-11T14:17:32.965Z,22.36
2018-04-11T14:18:41.815Z,22.39
2018-04-11T14:19:50.670Z,22.18
2018-04-11T14:20:59.552Z,22.2
2018-04-11T14:22:08.652Z,22.25
2018-04-11T14:23:17.504Z,22.14
2018-04-11T14:24:26.351Z,21.88
2018-04-11T14:25:35.203Z,21.96
2018-04-11T14:26:44.333Z,21.88
2018-04-11T14:27:53.182Z,21.77
2018-04-11T14:29:02.032Z,22.05
2018-04-11T14:30:11.034Z,22.21
2018-04-11T14:31:19.886Z,22.06
2018-04-11T14:32:28.735Z,22
2018-04-11T14:33:38.136Z,22.06
2018-04-11T14:34:46.988Z,21.92
2018-04-11T14:35:55.892Z,21.96
2018-04-11T14:37:04.800Z,22
2018-04-11T14:38:13.592Z,22.02
2018-04-11T14:39:22.444Z,22
2018-04-11T14:40:31.295Z,22.03
2018-04-11T14:41:40.247Z,22.1
2018-04-11T14:42:49.098Z,21.91
2018-04-11T14:43:58.224Z,21.98
2018-04-11T14:45:07.072Z,22.17
2018-04-11T14:46:16.198Z,22.2
2018-04-11T14:47:25.319Z,22.12
2018-04-11T14:48:34.175Z,21.98
2018-04-11T14:49:43.037Z,22.24
2018-04-11T14:50:51.873Z,22.31
2018-04-11T14:52:00.725Z,22.21
2018-04-11T14:53:09.577Z,22
2018-04-11T14:54:18.979Z,21.94
2018-04-11T14:55:27.834Z,21.82
2018-04-11T14:56:36.679Z,21.96
2018-04-11T14:57:45.542Z,21.92
2018-04-11T14:58:54.395Z,22.05
2018-04-11T15:00:03.303Z,21.88
2018-04-11T15:01:12.098Z,21.8
2018-04-11T15:02:21.290Z,21.92
2018-04-11T15:03:30.139Z,21.84
2018-04-11T15:04:39.279Z,21.86
2018-04-11T15:05:48.130Z,22.05